sensor_id;sensor_type;location;lat;lon;timestamp;temperature;humidity
26907;DHT22;14472;56.880;16.658;2023-12-07T00:01:06;2.00;74.90
26907;DHT22;14472;56.880;16.658;2023-12-07T00:03:32;2.00;68.70
26907;DHT22;14472;56.880;16.658;2023-12-07T00:05:57;2.00;64.10
26907;DHT22;14472;56.880;16.658;2023-12-07T00:08:23;2.10;64.30
26907;DHT22;14472;56.880;16.658;2023-12-07T00:10:49;2.20;53.90
26907;DHT22;14472;56.880;16.658;2023-12-07T00:13:14;2.20;57.80
26907;DHT22;14472;56.880;16.658;2023-12-07T00:15:40;2.10;55.00
26907;DHT22;14472;56.880;16.658;2023-12-07T00:18:06;2.10;53.90
26907;DHT22;14472;56.880;16.658;2023-12-07T00:20:31;2.10;55.20
26907;DHT22;14472;56.880;16.658;2023-12-07T00:22:57;2.10;51.80
26907;DHT22;14472;56.880;16.658;2023-12-07T00:25:23;2.00;51.20
26907;DHT22;14472;56.880;16.658;2023-12-07T00:27:49;2.00;53.00
26907;DHT22;14472;56.880;16.658;2023-12-07T00:30:15;1.90;62.50
26907;DHT22;14472;56.880;16.658;2023-12-07T00:32:41;1.90;61.80
26907;DHT22;14472;56.880;16.658;2023-12-07T00:35:10;2.00;64.10
26907;DHT22;14472;56.880;16.658;2023-12-07T00:37:36;2.00;57.70
26907;DHT22;14472;56.880;16.658;2023-12-07T00:40:02;2.00;55.10
26907;DHT22;14472;56.880;16.658;2023-12-07T00:42:29;2.00;52.80
26907;DHT22;14472;56.880;16.658;2023-12-07T00:44:55;1.90;56.40
26907;DHT22;14472;56.880;16.658;2023-12-07T00:47:20;1.90;58.20
26907;DHT22;14472;56.880;16.658;2023-12-07T00:49:46;1.90;70.80
26907;DHT22;14472;56.880;16.658;2023-12-07T00:52:12;1.90;73.60
26907;DHT22;14472;56.880;16.658;2023-12-07T00:54:38;2.00;70.20
26907;DHT22;14472;56.880;16.658;2023-12-07T00:57:07;1.90;70.90
26907;DHT22;14472;56.880;16.658;2023-12-07T00:59:33;2.00;67.40
26907;DHT22;14472;56.880;16.658;2023-12-07T01:02:03;1.90;60.00
26907;DHT22;14472;56.880;16.658;2023-12-07T01:04:30;1.90;61.30
26907;DHT22;14472;56.880;16.658;2023-12-07T01:06:56;1.90;61.60
26907;DHT22;14472;56.880;16.658;2023-12-07T01:09:22;1.90;69.50
26907;DHT22;14472;56.880;16.658;2023-12-07T01:11:49;1.90;73.20
26907;DHT22;14472;56.880;16.658;2023-12-07T01:14:15;2.00;68.30
26907;DHT22;14472;56.880;16.658;2023-12-07T01:16:42;2.00;69.30
26907;DHT22;14472;56.880;16.658;2023-12-07T01:19:08;2.00;64.20
26907;DHT22;14472;56.880;16.658;2023-12-07T01:21:34;1.90;66.50
26907;DHT22;14472;56.880;16.658;2023-12-07T01:23:59;1.90;68.70
26907;DHT22;14472;56.880;16.658;2023-12-07T01:26:25;1.90;80.00
26907;DHT22;14472;56.880;16.658;2023-12-07T01:28:51;1.90;84.20
26907;DHT22;14472;56.880;16.658;2023-12-07T01:31:17;2.00;85.00
26907;DHT22;14472;56.880;16.658;2023-12-07T01:33:43;1.90;77.80
26907;DHT22;14472;56.880;16.658;2023-12-07T01:36:09;2.00;72.80
26907;DHT22;14472;56.880;16.658;2023-12-07T01:38:35;2.10;77.80
26907;DHT22;14472;56.880;16.658;2023-12-07T01:41:01;2.20;61.50
26907;DHT22;14472;56.880;16.658;2023-12-07T01:43:26;2.20;64.40
26907;DHT22;14472;56.880;16.658;2023-12-07T01:45:54;2.10;64.30
26907;DHT22;14472;56.880;16.658;2023-12-07T01:48:22;2.10;62.30
26907;DHT22;14472;56.880;16.658;2023-12-07T01:50:48;2.10;64.30
26907;DHT22;14472;56.880;16.658;2023-12-07T01:53:15;2.00;62.20
26907;DHT22;14472;56.880;16.658;2023-12-07T01:55:42;1.90;64.10
26907;DHT22;14472;56.880;16.658;2023-12-07T01:58:08;1.90;67.70
26907;DHT22;14472;56.880;16.658;2023-12-07T02:00:34;1.90;69.20
26907;DHT22;14472;56.880;16.658;2023-12-07T02:03:02;1.80;77.50
26907;DHT22;14472;56.880;16.658;2023-12-07T02:05:29;1.90;84.20
26907;DHT22;14472;56.880;16.658;2023-12-07T02:07:56;1.90;83.60
26907;DHT22;14472;56.880;16.658;2023-12-07T02:10:22;1.90;77.60
26907;DHT22;14472;56.880;16.658;2023-12-07T02:12:48;2.00;71.00
26907;DHT22;14472;56.880;16.658;2023-12-07T02:15:14;2.20;60.00
26907;DHT22;14472;56.880;16.658;2023-12-07T02:20:35;2.00;45.70
26907;DHT22;14472;56.880;16.658;2023-12-07T02:23:05;1.90;55.70
26907;DHT22;14472;56.880;16.658;2023-12-07T02:25:36;2.00;59.20
26907;DHT22;14472;56.880;16.658;2023-12-07T02:28:06;2.00;57.60
26907;DHT22;14472;56.880;16.658;2023-12-07T02:30:32;2.00;57.40
26907;DHT22;14472;56.880;16.658;2023-12-07T02:32:58;1.90;57.60
26907;DHT22;14472;56.880;16.658;2023-12-07T02:35:24;2.00;57.00
26907;DHT22;14472;56.880;16.658;2023-12-07T02:37:51;2.00;51.80
26907;DHT22;14472;56.880;16.658;2023-12-07T02:40:20;1.90;57.90
26907;DHT22;14472;56.880;16.658;2023-12-07T02:42:47;1.90;64.10
26907;DHT22;14472;56.880;16.658;2023-12-07T02:45:13;1.90;56.50
26907;DHT22;14472;56.880;16.658;2023-12-07T02:47:40;2.00;53.60
26907;DHT22;14472;56.880;16.658;2023-12-07T02:50:07;2.00;48.80
26907;DHT22;14472;56.880;16.658;2023-12-07T02:52:33;1.90;46.40
26907;DHT22;14472;56.880;16.658;2023-12-07T02:54:59;1.90;46.20
26907;DHT22;14472;56.880;16.658;2023-12-07T02:57:25;2.00;49.90
26907;DHT22;14472;56.880;16.658;2023-12-07T02:59:50;2.00;56.60
26907;DHT22;14472;56.880;16.658;2023-12-07T03:02:16;1.80;64.80
26907;DHT22;14472;56.880;16.658;2023-12-07T03:04:42;1.90;64.10
26907;DHT22;14472;56.880;16.658;2023-12-07T03:07:08;2.10;64.20
26907;DHT22;14472;56.880;16.658;2023-12-07T03:09:33;2.20;51.60
26907;DHT22;14472;56.880;16.658;2023-12-07T03:11:59;2.20;48.10
26907;DHT22;14472;56.880;16.658;2023-12-07T03:14:24;2.10;46.40
26907;DHT22;14472;56.880;16.658;2023-12-07T03:16:50;2.00;48.20
26907;DHT22;14472;56.880;16.658;2023-12-07T03:19:16;2.00;62.00
26907;DHT22;14472;56.880;16.658;2023-12-07T03:21:42;2.00;65.90
26907;DHT22;14472;56.880;16.658;2023-12-07T03:24:10;2.00;68.60
26907;DHT22;14472;56.880;16.658;2023-12-07T03:26:37;2.00;64.10
26907;DHT22;14472;56.880;16.658;2023-12-07T03:29:02;2.00;63.20
26907;DHT22;14472;56.880;16.658;2023-12-07T03:31:29;1.90;62.50
26907;DHT22;14472;56.880;16.658;2023-12-07T03:33:55;1.90;62.30
26907;DHT22;14472;56.880;16.658;2023-12-07T03:36:22;2.00;64.20
26907;DHT22;14472;56.880;16.658;2023-12-07T03:38:48;2.10;71.10
26907;DHT22;14472;56.880;16.658;2023-12-07T03:41:14;2.10;67.70
26907;DHT22;14472;56.880;16.658;2023-12-07T03:43:40;2.10;59.90
26907;DHT22;14472;56.880;16.658;2023-12-07T03:46:07;2.10;60.20
26907;DHT22;14472;56.880;16.658;2023-12-07T03:48:33;2.00;57.60
26907;DHT22;14472;56.880;16.658;2023-12-07T03:50:59;2.00;59.50
26907;DHT22;14472;56.880;16.658;2023-12-07T03:53:25;2.00;62.20
26907;DHT22;14472;56.880;16.658;2023-12-07T03:55:51;2.00;65.30
26907;DHT22;14472;56.880;16.658;2023-12-07T03:58:17;2.10;76.70
26907;DHT22;14472;56.880;16.658;2023-12-07T04:00:42;2.10;70.40
26907;DHT22;14472;56.880;16.658;2023-12-07T04:03:09;2.10;68.70
26907;DHT22;14472;56.880;16.658;2023-12-07T04:05:35;2.10;71.10
26907;DHT22;14472;56.880;16.658;2023-12-07T04:08:00;2.00;69.90
26907;DHT22;14472;56.880;16.658;2023-12-07T04:10:26;2.10;71.10
26907;DHT22;14472;56.880;16.658;2023-12-07T04:12:52;2.00;74.40
26907;DHT22;14472;56.880;16.658;2023-12-07T04:15:20;2.00;84.00
26907;DHT22;14472;56.880;16.658;2023-12-07T04:17:46;2.10;88.20
26907;DHT22;14472;56.880;16.658;2023-12-07T04:20:12;2.10;90.30
26907;DHT22;14472;56.880;16.658;2023-12-07T04:22:39;2.00;90.30
26907;DHT22;14472;56.880;16.658;2023-12-07T04:25:06;2.00;90.30
26907;DHT22;14472;56.880;16.658;2023-12-07T04:27:33;2.10;90.30
26907;DHT22;14472;56.880;16.658;2023-12-07T04:29:59;2.00;90.30
26907;DHT22;14472;56.880;16.658;2023-12-07T04:32:24;2.10;89.50
26907;DHT22;14472;56.880;16.658;2023-12-07T04:34:51;2.10;90.40
26907;DHT22;14472;56.880;16.658;2023-12-07T04:37:17;2.10;93.20
26907;DHT22;14472;56.880;16.658;2023-12-07T04:39:42;2.10;92.40
26907;DHT22;14472;56.880;16.658;2023-12-07T04:42:08;2.10;96.10
26907;DHT22;14472;56.880;16.658;2023-12-07T04:44:34;2.10;96.10
26907;DHT22;14472;56.880;16.658;2023-12-07T04:47:00;2.10;96.70
26907;DHT22;14472;56.880;16.658;2023-12-07T04:49:26;2.10;97.40
26907;DHT22;14472;56.880;16.658;2023-12-07T04:51:51;2.00;99.90
26907;DHT22;14472;56.880;16.658;2023-12-07T04:54:17;2.10;99.90
26907;DHT22;14472;56.880;16.658;2023-12-07T04:56:43;2.10;99.90
26907;DHT22;14472;56.880;16.658;2023-12-07T04:59:09;2.10;99.90
26907;DHT22;14472;56.880;16.658;2023-12-07T05:01:36;2.10;99.90
26907;DHT22;14472;56.880;16.658;2023-12-07T05:04:05;2.00;99.90
26907;DHT22;14472;56.880;16.658;2023-12-07T05:06:34;2.10;99.90
26907;DHT22;14472;56.880;16.658;2023-12-07T05:09:00;2.00;99.90
26907;DHT22;14472;56.880;16.658;2023-12-07T05:11:26;2.10;99.90
26907;DHT22;14472;56.880;16.658;2023-12-07T05:13:52;2.10;99.90
26907;DHT22;14472;56.880;16.658;2023-12-07T05:16:18;2.20;99.90
26907;DHT22;14472;56.880;16.658;2023-12-07T05:18:43;2.20;99.90
26907;DHT22;14472;56.880;16.658;2023-12-07T05:21:09;2.10;99.90
26907;DHT22;14472;56.880;16.658;2023-12-07T05:23:35;2.10;99.90
26907;DHT22;14472;56.880;16.658;2023-12-07T05:26:01;2.10;99.90
26907;DHT22;14472;56.880;16.658;2023-12-07T05:28:26;2.10;99.90
26907;DHT22;14472;56.880;16.658;2023-12-07T05:30:52;2.00;99.90
26907;DHT22;14472;56.880;16.658;2023-12-07T05:33:19;2.10;99.90
26907;DHT22;14472;56.880;16.658;2023-12-07T05:35:45;2.20;99.90
26907;DHT22;14472;56.880;16.658;2023-12-07T05:38:11;2.20;99.90
26907;DHT22;14472;56.880;16.658;2023-12-07T05:40:37;2.10;99.90
26907;DHT22;14472;56.880;16.658;2023-12-07T05:43:02;2.10;99.90
26907;DHT22;14472;56.880;16.658;2023-12-07T05:45:29;2.00;99.90
26907;DHT22;14472;56.880;16.658;2023-12-07T05:47:55;2.00;99.90
26907;DHT22;14472;56.880;16.658;2023-12-07T05:50:21;2.00;99.90
26907;DHT22;14472;56.880;16.658;2023-12-07T05:52:47;2.10;99.90
26907;DHT22;14472;56.880;16.658;2023-12-07T05:55:12;2.10;99.90
26907;DHT22;14472;56.880;16.658;2023-12-07T05:57:39;2.20;99.90
26907;DHT22;14472;56.880;16.658;2023-12-07T06:00:05;2.10;99.90
26907;DHT22;14472;56.880;16.658;2023-12-07T06:02:35;2.10;99.90
26907;DHT22;14472;56.880;16.658;2023-12-07T06:05:01;2.10;99.90
26907;DHT22;14472;56.880;16.658;2023-12-07T06:07:29;2.10;99.90
26907;DHT22;14472;56.880;16.658;2023-12-07T06:09:55;2.10;99.90
26907;DHT22;14472;56.880;16.658;2023-12-07T06:12:21;2.20;99.90
26907;DHT22;14472;56.880;16.658;2023-12-07T06:14:47;2.20;99.90
26907;DHT22;14472;56.880;16.658;2023-12-07T06:17:13;2.20;99.90
26907;DHT22;14472;56.880;16.658;2023-12-07T06:19:39;2.10;99.90
26907;DHT22;14472;56.880;16.658;2023-12-07T06:22:05;2.10;99.90
26907;DHT22;14472;56.880;16.658;2023-12-07T06:24:31;2.10;99.90
26907;DHT22;14472;56.880;16.658;2023-12-07T06:26:58;2.10;99.90
26907;DHT22;14472;56.880;16.658;2023-12-07T06:29:24;2.10;99.90
26907;DHT22;14472;56.880;16.658;2023-12-07T06:31:50;2.10;99.90
26907;DHT22;14472;56.880;16.658;2023-12-07T06:34:16;2.20;99.90
26907;DHT22;14472;56.880;16.658;2023-12-07T06:36:42;2.10;99.90
26907;DHT22;14472;56.880;16.658;2023-12-07T06:39:09;2.10;99.90
26907;DHT22;14472;56.880;16.658;2023-12-07T06:41:34;2.00;99.90
26907;DHT22;14472;56.880;16.658;2023-12-07T06:44:00;2.00;99.90
26907;DHT22;14472;56.880;16.658;2023-12-07T06:46:26;2.00;99.90
26907;DHT22;14472;56.880;16.658;2023-12-07T06:48:52;2.00;99.90
26907;DHT22;14472;56.880;16.658;2023-12-07T06:51:17;2.00;99.90
26907;DHT22;14472;56.880;16.658;2023-12-07T06:53:43;2.10;99.90
26907;DHT22;14472;56.880;16.658;2023-12-07T06:56:09;2.00;99.90
26907;DHT22;14472;56.880;16.658;2023-12-07T06:58:35;2.00;99.90
26907;DHT22;14472;56.880;16.658;2023-12-07T07:01:00;2.00;99.90
26907;DHT22;14472;56.880;16.658;2023-12-07T07:03:26;1.90;99.90
26907;DHT22;14472;56.880;16.658;2023-12-07T07:05:54;1.90;99.90
26907;DHT22;14472;56.880;16.658;2023-12-07T07:08:20;1.90;99.90
26907;DHT22;14472;56.880;16.658;2023-12-07T07:10:45;1.90;99.90
26907;DHT22;14472;56.880;16.658;2023-12-07T07:13:12;1.90;99.90
26907;DHT22;14472;56.880;16.658;2023-12-07T07:15:42;1.80;99.90
26907;DHT22;14472;56.880;16.658;2023-12-07T07:18:09;1.80;99.90
26907;DHT22;14472;56.880;16.658;2023-12-07T07:20:34;1.80;99.90
26907;DHT22;14472;56.880;16.658;2023-12-07T07:23:00;1.70;99.90
26907;DHT22;14472;56.880;16.658;2023-12-07T07:25:26;1.70;99.90
26907;DHT22;14472;56.880;16.658;2023-12-07T07:27:51;1.80;99.90
26907;DHT22;14472;56.880;16.658;2023-12-07T07:30:20;1.80;99.90
26907;DHT22;14472;56.880;16.658;2023-12-07T07:32:46;1.80;99.90
26907;DHT22;14472;56.880;16.658;2023-12-07T07:35:11;1.70;99.90
26907;DHT22;14472;56.880;16.658;2023-12-07T07:37:38;1.70;99.90
26907;DHT22;14472;56.880;16.658;2023-12-07T07:40:04;1.70;99.90
26907;DHT22;14472;56.880;16.658;2023-12-07T07:42:33;1.70;99.90
26907;DHT22;14472;56.880;16.658;2023-12-07T07:44:59;1.60;99.90
26907;DHT22;14472;56.880;16.658;2023-12-07T07:47:24;1.60;99.90
26907;DHT22;14472;56.880;16.658;2023-12-07T07:49:50;1.60;99.90
26907;DHT22;14472;56.880;16.658;2023-12-07T07:52:16;1.70;99.90
26907;DHT22;14472;56.880;16.658;2023-12-07T07:54:42;1.60;99.90
26907;DHT22;14472;56.880;16.658;2023-12-07T07:57:08;1.60;99.90
26907;DHT22;14472;56.880;16.658;2023-12-07T07:59:34;1.60;99.90
26907;DHT22;14472;56.880;16.658;2023-12-07T08:01:59;1.60;99.90
26907;DHT22;14472;56.880;16.658;2023-12-07T08:04:25;1.60;99.90
26907;DHT22;14472;56.880;16.658;2023-12-07T08:06:51;1.70;99.90
26907;DHT22;14472;56.880;16.658;2023-12-07T08:09:16;1.70;99.90
26907;DHT22;14472;56.880;16.658;2023-12-07T08:11:42;1.70;99.90
26907;DHT22;14472;56.880;16.658;2023-12-07T08:14:08;1.70;99.90
26907;DHT22;14472;56.880;16.658;2023-12-07T08:16:34;1.70;99.90
26907;DHT22;14472;56.880;16.658;2023-12-07T08:19:00;1.70;99.90
26907;DHT22;14472;56.880;16.658;2023-12-07T08:21:25;1.60;99.90
26907;DHT22;14472;56.880;16.658;2023-12-07T08:23:51;1.70;99.90
26907;DHT22;14472;56.880;16.658;2023-12-07T08:26:17;1.70;99.90
26907;DHT22;14472;56.880;16.658;2023-12-07T08:28:44;1.60;99.90
26907;DHT22;14472;56.880;16.658;2023-12-07T08:31:12;1.60;99.90
26907;DHT22;14472;56.880;16.658;2023-12-07T08:33:38;1.50;99.90
26907;DHT22;14472;56.880;16.658;2023-12-07T08:36:05;1.60;99.90
26907;DHT22;14472;56.880;16.658;2023-12-07T08:38:32;1.70;99.90
26907;DHT22;14472;56.880;16.658;2023-12-07T08:40:57;1.70;99.90
26907;DHT22;14472;56.880;16.658;2023-12-07T08:43:24;1.70;99.90
26907;DHT22;14472;56.880;16.658;2023-12-07T08:45:53;1.70;99.90
26907;DHT22;14472;56.880;16.658;2023-12-07T08:48:22;1.80;99.90
26907;DHT22;14472;56.880;16.658;2023-12-07T08:50:48;1.90;99.90
26907;DHT22;14472;56.880;16.658;2023-12-07T08:53:13;1.80;99.90
26907;DHT22;14472;56.880;16.658;2023-12-07T08:55:39;1.80;99.90
26907;DHT22;14472;56.880;16.658;2023-12-07T08:58:05;1.70;99.90
26907;DHT22;14472;56.880;16.658;2023-12-07T09:00:32;1.80;99.90
26907;DHT22;14472;56.880;16.658;2023-12-07T09:02:57;1.90;99.90
26907;DHT22;14472;56.880;16.658;2023-12-07T09:05:23;1.90;99.90
26907;DHT22;14472;56.880;16.658;2023-12-07T09:07:49;1.80;99.90
26907;DHT22;14472;56.880;16.658;2023-12-07T09:10:15;1.70;99.90
26907;DHT22;14472;56.880;16.658;2023-12-07T09:12:40;1.60;99.90
26907;DHT22;14472;56.880;16.658;2023-12-07T09:15:07;1.50;99.90
26907;DHT22;14472;56.880;16.658;2023-12-07T09:17:33;1.40;99.90
26907;DHT22;14472;56.880;16.658;2023-12-07T09:19:59;1.40;99.90
26907;DHT22;14472;56.880;16.658;2023-12-07T09:22:25;1.40;99.90
26907;DHT22;14472;56.880;16.658;2023-12-07T09:24:51;1.50;99.90
26907;DHT22;14472;56.880;16.658;2023-12-07T09:27:16;1.60;99.90
26907;DHT22;14472;56.880;16.658;2023-12-07T09:29:42;1.50;99.90
26907;DHT22;14472;56.880;16.658;2023-12-07T09:32:08;1.40;99.90
26907;DHT22;14472;56.880;16.658;2023-12-07T09:34:33;1.30;99.90
26907;DHT22;14472;56.880;16.658;2023-12-07T09:37:07;1.20;99.90
26907;DHT22;14472;56.880;16.658;2023-12-07T09:39:33;1.20;99.90
26907;DHT22;14472;56.880;16.658;2023-12-07T09:41:58;1.20;99.90
26907;DHT22;14472;56.880;16.658;2023-12-07T09:44:24;1.20;99.90
26907;DHT22;14472;56.880;16.658;2023-12-07T09:46:50;1.30;99.90
26907;DHT22;14472;56.880;16.658;2023-12-07T09:49:17;1.30;99.90
26907;DHT22;14472;56.880;16.658;2023-12-07T09:51:43;1.20;99.90
26907;DHT22;14472;56.880;16.658;2023-12-07T09:54:09;1.10;99.90
26907;DHT22;14472;56.880;16.658;2023-12-07T09:56:36;1.20;99.90
26907;DHT22;14472;56.880;16.658;2023-12-07T09:59:01;1.10;99.90
26907;DHT22;14472;56.880;16.658;2023-12-07T10:01:31;1.10;99.90
26907;DHT22;14472;56.880;16.658;2023-12-07T10:04:35;1.10;99.90
26907;DHT22;14472;56.880;16.658;2023-12-07T10:07:02;1.10;99.90
26907;DHT22;14472;56.880;16.658;2023-12-07T10:09:27;1.10;99.90
26907;DHT22;14472;56.880;16.658;2023-12-07T10:12:03;1.10;99.90
26907;DHT22;14472;56.880;16.658;2023-12-07T10:14:29;1.10;99.90
26907;DHT22;14472;56.880;16.658;2023-12-07T10:16:55;1.10;99.90
26907;DHT22;14472;56.880;16.658;2023-12-07T10:19:22;1.10;99.90
26907;DHT22;14472;56.880;16.658;2023-12-07T10:21:49;1.10;99.90
26907;DHT22;14472;56.880;16.658;2023-12-07T10:24:25;1.10;99.90
26907;DHT22;14472;56.880;16.658;2023-12-07T10:26:52;1.10;99.90
26907;DHT22;14472;56.880;16.658;2023-12-07T10:29:18;1.10;99.90
26907;DHT22;14472;56.880;16.658;2023-12-07T10:31:48;1.10;99.90
26907;DHT22;14472;56.880;16.658;2023-12-07T10:34:18;1.10;99.90
26907;DHT22;14472;56.880;16.658;2023-12-07T10:36:46;1.10;99.90
26907;DHT22;14472;56.880;16.658;2023-12-07T10:39:13;1.10;99.90
26907;DHT22;14472;56.880;16.658;2023-12-07T10:41:42;1.10;99.90
26907;DHT22;14472;56.880;16.658;2023-12-07T10:44:11;1.10;99.90
26907;DHT22;14472;56.880;16.658;2023-12-07T10:46:39;1.10;99.90
26907;DHT22;14472;56.880;16.658;2023-12-07T10:49:08;1.10;99.90
26907;DHT22;14472;56.880;16.658;2023-12-07T10:51:55;1.20;99.90
26907;DHT22;14472;56.880;16.658;2023-12-07T10:54:24;1.20;99.90
26907;DHT22;14472;56.880;16.658;2023-12-07T10:56:52;1.20;99.90
26907;DHT22;14472;56.880;16.658;2023-12-07T10:59:19;1.20;99.90
26907;DHT22;14472;56.880;16.658;2023-12-07T11:01:47;1.30;99.90
26907;DHT22;14472;56.880;16.658;2023-12-07T11:04:14;1.30;99.90
26907;DHT22;14472;56.880;16.658;2023-12-07T11:06:40;1.30;99.90
26907;DHT22;14472;56.880;16.658;2023-12-07T11:09:10;1.40;99.90
26907;DHT22;14472;56.880;16.658;2023-12-07T11:11:41;1.40;99.90
26907;DHT22;14472;56.880;16.658;2023-12-07T11:14:10;1.40;99.90
26907;DHT22;14472;56.880;16.658;2023-12-07T11:16:45;1.50;99.90
26907;DHT22;14472;56.880;16.658;2023-12-07T11:19:43;1.60;99.90
26907;DHT22;14472;56.880;16.658;2023-12-07T11:22:11;1.60;99.90
26907;DHT22;14472;56.880;16.658;2023-12-07T11:24:57;1.80;99.90
26907;DHT22;14472;56.880;16.658;2023-12-07T11:27:24;1.90;99.90
26907;DHT22;14472;56.880;16.658;2023-12-07T11:29:51;1.90;99.90
26907;DHT22;14472;56.880;16.658;2023-12-07T11:32:17;1.90;99.90
26907;DHT22;14472;56.880;16.658;2023-12-07T11:34:43;1.90;99.90
26907;DHT22;14472;56.880;16.658;2023-12-07T11:37:11;2.10;99.90
26907;DHT22;14472;56.880;16.658;2023-12-07T11:39:38;2.00;99.90
26907;DHT22;14472;56.880;16.658;2023-12-07T11:42:11;1.80;99.90
26907;DHT22;14472;56.880;16.658;2023-12-07T11:44:38;1.70;99.90
26907;DHT22;14472;56.880;16.658;2023-12-07T11:47:04;1.70;99.90
26907;DHT22;14472;56.880;16.658;2023-12-07T11:49:31;1.90;99.90
26907;DHT22;14472;56.880;16.658;2023-12-07T11:51:58;1.90;99.90
26907;DHT22;14472;56.880;16.658;2023-12-07T11:54:24;1.80;99.90
26907;DHT22;14472;56.880;16.658;2023-12-07T11:56:54;1.60;99.90
26907;DHT22;14472;56.880;16.658;2023-12-07T11:59:20;1.40;99.90
26907;DHT22;14472;56.880;16.658;2023-12-07T12:01:49;1.60;99.90
26907;DHT22;14472;56.880;16.658;2023-12-07T12:04:15;1.60;99.90
26907;DHT22;14472;56.880;16.658;2023-12-07T12:06:43;1.50;99.90
26907;DHT22;14472;56.880;16.658;2023-12-07T12:09:14;1.50;99.90
26907;DHT22;14472;56.880;16.658;2023-12-07T12:11:49;1.40;99.90
26907;DHT22;14472;56.880;16.658;2023-12-07T12:14:18;1.50;99.90
26907;DHT22;14472;56.880;16.658;2023-12-07T12:16:46;1.50;99.90
26907;DHT22;14472;56.880;16.658;2023-12-07T12:19:12;1.40;99.90
26907;DHT22;14472;56.880;16.658;2023-12-07T12:21:40;1.40;99.90
26907;DHT22;14472;56.880;16.658;2023-12-07T12:24:07;1.40;99.90
26907;DHT22;14472;56.880;16.658;2023-12-07T12:26:35;1.30;99.90
26907;DHT22;14472;56.880;16.658;2023-12-07T12:29:02;1.40;99.90
26907;DHT22;14472;56.880;16.658;2023-12-07T12:31:29;1.40;99.90
26907;DHT22;14472;56.880;16.658;2023-12-07T12:33:55;1.30;99.90
26907;DHT22;14472;56.880;16.658;2023-12-07T12:36:21;1.30;99.90
26907;DHT22;14472;56.880;16.658;2023-12-07T12:38:52;1.30;99.90
26907;DHT22;14472;56.880;16.658;2023-12-07T12:41:22;1.20;99.90
26907;DHT22;14472;56.880;16.658;2023-12-07T12:43:49;1.20;99.90
26907;DHT22;14472;56.880;16.658;2023-12-07T12:46:16;1.20;99.90
26907;DHT22;14472;56.880;16.658;2023-12-07T12:48:57;1.30;99.90
26907;DHT22;14472;56.880;16.658;2023-12-07T12:51:28;1.20;99.90
26907;DHT22;14472;56.880;16.658;2023-12-07T12:53:55;1.20;99.90
26907;DHT22;14472;56.880;16.658;2023-12-07T12:56:22;1.20;99.90
26907;DHT22;14472;56.880;16.658;2023-12-07T12:58:52;1.20;99.90
26907;DHT22;14472;56.880;16.658;2023-12-07T13:01:18;1.30;99.90
26907;DHT22;14472;56.880;16.658;2023-12-07T13:03:47;1.30;99.90
26907;DHT22;14472;56.880;16.658;2023-12-07T13:06:17;1.30;99.90
26907;DHT22;14472;56.880;16.658;2023-12-07T13:08:47;1.20;99.90
26907;DHT22;14472;56.880;16.658;2023-12-07T13:11:17;1.30;99.90
26907;DHT22;14472;56.880;16.658;2023-12-07T13:13:43;1.20;99.90
26907;DHT22;14472;56.880;16.658;2023-12-07T13:16:10;1.30;99.90
26907;DHT22;14472;56.880;16.658;2023-12-07T13:18:37;1.30;99.90
26907;DHT22;14472;56.880;16.658;2023-12-07T13:21:03;1.20;99.90
26907;DHT22;14472;56.880;16.658;2023-12-07T13:23:29;1.30;99.90
26907;DHT22;14472;56.880;16.658;2023-12-07T13:25:54;1.30;99.90
26907;DHT22;14472;56.880;16.658;2023-12-07T13:28:20;1.30;99.90
26907;DHT22;14472;56.880;16.658;2023-12-07T13:30:46;1.30;99.90
26907;DHT22;14472;56.880;16.658;2023-12-07T13:33:12;1.40;99.90
26907;DHT22;14472;56.880;16.658;2023-12-07T13:35:37;1.50;99.90
26907;DHT22;14472;56.880;16.658;2023-12-07T13:38:03;1.50;99.90
26907;DHT22;14472;56.880;16.658;2023-12-07T13:40:30;1.50;99.90
26907;DHT22;14472;56.880;16.658;2023-12-07T13:42:56;1.50;99.90
26907;DHT22;14472;56.880;16.658;2023-12-07T13:45:21;1.50;99.90
26907;DHT22;14472;56.880;16.658;2023-12-07T13:47:47;1.70;99.90
26907;DHT22;14472;56.880;16.658;2023-12-07T13:50:13;1.60;99.90
26907;DHT22;14472;56.880;16.658;2023-12-07T13:52:39;1.60;99.90
26907;DHT22;14472;56.880;16.658;2023-12-07T13:55:05;1.80;99.90
26907;DHT22;14472;56.880;16.658;2023-12-07T13:57:30;1.80;99.90
26907;DHT22;14472;56.880;16.658;2023-12-07T13:59:56;1.90;99.90
26907;DHT22;14472;56.880;16.658;2023-12-07T14:02:23;1.90;99.90
26907;DHT22;14472;56.880;16.658;2023-12-07T14:04:49;1.90;99.90
26907;DHT22;14472;56.880;16.658;2023-12-07T14:07:20;1.90;99.90
26907;DHT22;14472;56.880;16.658;2023-12-07T14:09:48;2.00;99.90
26907;DHT22;14472;56.880;16.658;2023-12-07T14:12:15;2.10;99.90
26907;DHT22;14472;56.880;16.658;2023-12-07T14:14:45;2.20;99.90
26907;DHT22;14472;56.880;16.658;2023-12-07T14:17:14;2.40;99.90
26907;DHT22;14472;56.880;16.658;2023-12-07T14:19:41;2.10;99.90
26907;DHT22;14472;56.880;16.658;2023-12-07T14:22:07;1.90;99.90
26907;DHT22;14472;56.880;16.658;2023-12-07T14:24:36;1.80;99.90
26907;DHT22;14472;56.880;16.658;2023-12-07T14:27:03;1.70;99.90
26907;DHT22;14472;56.880;16.658;2023-12-07T14:29:31;1.90;99.90
26907;DHT22;14472;56.880;16.658;2023-12-07T14:31:58;1.80;99.90
26907;DHT22;14472;56.880;16.658;2023-12-07T14:34:25;1.70;99.90
26907;DHT22;14472;56.880;16.658;2023-12-07T14:36:52;1.60;99.90
26907;DHT22;14472;56.880;16.658;2023-12-07T14:39:18;1.70;99.90
26907;DHT22;14472;56.880;16.658;2023-12-07T14:41:49;1.90;99.90
26907;DHT22;14472;56.880;16.658;2023-12-07T14:44:16;1.80;99.90
26907;DHT22;14472;56.880;16.658;2023-12-07T14:46:46;1.70;99.90
26907;DHT22;14472;56.880;16.658;2023-12-07T14:49:13;1.50;99.90
26907;DHT22;14472;56.880;16.658;2023-12-07T14:51:39;1.50;99.90
26907;DHT22;14472;56.880;16.658;2023-12-07T14:54:05;1.50;99.90
26907;DHT22;14472;56.880;16.658;2023-12-07T14:56:32;1.50;99.90
26907;DHT22;14472;56.880;16.658;2023-12-07T14:59:00;1.40;99.90
26907;DHT22;14472;56.880;16.658;2023-12-07T15:01:25;1.40;99.90
26907;DHT22;14472;56.880;16.658;2023-12-07T15:03:51;1.30;99.90
26907;DHT22;14472;56.880;16.658;2023-12-07T15:06:17;1.30;99.90
26907;DHT22;14472;56.880;16.658;2023-12-07T15:08:43;1.30;99.90
26907;DHT22;14472;56.880;16.658;2023-12-07T15:11:09;1.30;99.90
26907;DHT22;14472;56.880;16.658;2023-12-07T15:13:35;1.30;99.90
26907;DHT22;14472;56.880;16.658;2023-12-07T15:16:01;1.30;99.90
26907;DHT22;14472;56.880;16.658;2023-12-07T15:18:31;1.30;99.90
26907;DHT22;14472;56.880;16.658;2023-12-07T15:21:01;1.20;99.90
26907;DHT22;14472;56.880;16.658;2023-12-07T15:23:27;1.20;99.90
26907;DHT22;14472;56.880;16.658;2023-12-07T15:25:53;1.20;99.90
26907;DHT22;14472;56.880;16.658;2023-12-07T15:28:20;1.20;99.90
26907;DHT22;14472;56.880;16.658;2023-12-07T15:30:46;1.20;99.90